sensor_id;sensor_type;location;lat;lon;timestamp;P1;durP1;ratioP1;P2;durP2;ratioP2
51758;SDS011;66684;47.568;18.734;2023-05-16T00:00:24;4.35;;;1.75;;
51758;SDS011;66684;47.568;18.734;2023-05-16T00:02:50;2.55;;;1.52;;
51758;SDS011;66684;47.568;18.734;2023-05-16T00:05:16;5.82;;;2.00;;
51758;SDS011;66684;47.568;18.734;2023-05-16T00:07:43;4.15;;;1.90;;
51758;SDS011;66684;47.568;18.734;2023-05-16T00:10:10;3.08;;;2.00;;
51758;SDS011;66684;47.568;18.734;2023-05-16T00:12:37;3.30;;;2.00;;
51758;SDS011;66684;47.568;18.734;2023-05-16T00:15:06;2.50;;;1.90;;
51758;SDS011;66684;47.568;18.734;2023-05-16T00:17:37;4.15;;;2.30;;
51758;SDS011;66684;47.568;18.734;2023-05-16T00:20:03;2.75;;;2.10;;
51758;SDS011;66684;47.568;18.734;2023-05-16T00:22:35;4.60;;;2.15;;
51758;SDS011;66684;47.568;18.734;2023-05-16T00:25:02;4.03;;;2.25;;
51758;SDS011;66684;47.568;18.734;2023-05-16T00:27:28;2.65;;;2.08;;
51758;SDS011;66684;47.568;18.734;2023-05-16T00:29:54;6.25;;;1.98;;
51758;SDS011;66684;47.568;18.734;2023-05-16T00:32:20;2.17;;;1.70;;
51758;SDS011;66684;47.568;18.734;2023-05-16T00:34:46;2.28;;;1.67;;
51758;SDS011;66684;47.568;18.734;2023-05-16T00:37:12;2.15;;;1.60;;
51758;SDS011;66684;47.568;18.734;2023-05-16T00:39:39;2.00;;;1.37;;
51758;SDS011;66684;47.568;18.734;2023-05-16T00:42:05;1.40;;;0.82;;
51758;SDS011;66684;47.568;18.734;2023-05-16T00:44:31;2.10;;;1.10;;
51758;SDS011;66684;47.568;18.734;2023-05-16T00:46:57;2.25;;;1.20;;
51758;SDS011;66684;47.568;18.734;2023-05-16T00:49:24;8.85;;;1.40;;
51758;SDS011;66684;47.568;18.734;2023-05-16T00:51:51;2.62;;;1.27;;
51758;SDS011;66684;47.568;18.734;2023-05-16T00:54:19;4.18;;;1.62;;
51758;SDS011;66684;47.568;18.734;2023-05-16T00:56:47;4.22;;;1.48;;
51758;SDS011;66684;47.568;18.734;2023-05-16T00:59:13;3.92;;;1.42;;
51758;SDS011;66684;47.568;18.734;2023-05-16T01:01:40;4.35;;;1.35;;
51758;SDS011;66684;47.568;18.734;2023-05-16T01:04:06;4.37;;;1.62;;
51758;SDS011;66684;47.568;18.734;2023-05-16T01:06:32;4.10;;;1.52;;
51758;SDS011;66684;47.568;18.734;2023-05-16T01:08:59;2.08;;;1.10;;
51758;SDS011;66684;47.568;18.734;2023-05-16T01:13:59;1.70;;;0.80;;
51758;SDS011;66684;47.568;18.734;2023-05-16T01:16:37;3.53;;;1.30;;
51758;SDS011;66684;47.568;18.734;2023-05-16T01:22:02;4.03;;;1.27;;
51758;SDS011;66684;47.568;18.734;2023-05-16T01:24:43;3.22;;;1.33;;
51758;SDS011;66684;47.568;18.734;2023-05-16T01:27:17;2.22;;;1.40;;
51758;SDS011;66684;47.568;18.734;2023-05-16T01:29:44;1.35;;;1.08;;
51758;SDS011;66684;47.568;18.734;2023-05-16T01:32:10;2.78;;;1.27;;
51758;SDS011;66684;47.568;18.734;2023-05-16T01:34:35;2.12;;;0.85;;
51758;SDS011;66684;47.568;18.734;2023-05-16T01:37:08;1.23;;;0.77;;
51758;SDS011;66684;47.568;18.734;2023-05-16T01:42:14;1.83;;;0.90;;
51758;SDS011;66684;47.568;18.734;2023-05-16T01:47:16;3.92;;;1.55;;
51758;SDS011;66684;47.568;18.734;2023-05-16T01:49:46;6.43;;;2.75;;
51758;SDS011;66684;47.568;18.734;2023-05-16T01:52:25;2.60;;;1.52;;
51758;SDS011;66684;47.568;18.734;2023-05-16T01:54:55;2.85;;;1.62;;
51758;SDS011;66684;47.568;18.734;2023-05-16T01:57:25;3.40;;;1.80;;
51758;SDS011;66684;47.568;18.734;2023-05-16T01:59:52;2.35;;;1.80;;
51758;SDS011;66684;47.568;18.734;2023-05-16T02:02:19;2.75;;;2.00;;
51758;SDS011;66684;47.568;18.734;2023-05-16T02:04:45;3.25;;;2.00;;
51758;SDS011;66684;47.568;18.734;2023-05-16T02:07:11;3.83;;;1.80;;
51758;SDS011;66684;47.568;18.734;2023-05-16T02:09:39;2.00;;;1.67;;
51758;SDS011;66684;47.568;18.734;2023-05-16T02:12:05;2.25;;;1.30;;
51758;SDS011;66684;47.568;18.734;2023-05-16T02:14:31;3.67;;;0.90;;
51758;SDS011;66684;47.568;18.734;2023-05-16T02:16:58;1.90;;;0.75;;
51758;SDS011;66684;47.568;18.734;2023-05-16T02:19:24;1.98;;;0.90;;
51758;SDS011;66684;47.568;18.734;2023-05-16T02:21:49;1.15;;;0.40;;
51758;SDS011;66684;47.568;18.734;2023-05-16T02:24:15;2.75;;;0.60;;
51758;SDS011;66684;47.568;18.734;2023-05-16T02:26:41;1.15;;;0.50;;
51758;SDS011;66684;47.568;18.734;2023-05-16T02:29:08;1.10;;;0.50;;
51758;SDS011;66684;47.568;18.734;2023-05-16T02:31:34;1.45;;;0.40;;
51758;SDS011;66684;47.568;18.734;2023-05-16T02:34:00;2.75;;;0.40;;
51758;SDS011;66684;47.568;18.734;2023-05-16T02:36:26;0.52;;;0.28;;
51758;SDS011;66684;47.568;18.734;2023-05-16T02:38:52;1.98;;;0.45;;
51758;SDS011;66684;47.568;18.734;2023-05-16T02:41:18;2.45;;;0.40;;
51758;SDS011;66684;47.568;18.734;2023-05-16T02:43:47;1.10;;;0.60;;
51758;SDS011;66684;47.568;18.734;2023-05-16T02:46:20;1.35;;;0.60;;
51758;SDS011;66684;47.568;18.734;2023-05-16T02:48:50;2.45;;;0.73;;
51758;SDS011;66684;47.568;18.734;2023-05-16T02:51:16;1.58;;;0.88;;
51758;SDS011;66684;47.568;18.734;2023-05-16T02:53:43;2.28;;;0.75;;
51758;SDS011;66684;47.568;18.734;2023-05-16T02:56:09;1.17;;;0.85;;
51758;SDS011;66684;47.568;18.734;2023-05-16T02:58:35;1.55;;;0.93;;
51758;SDS011;66684;47.568;18.734;2023-05-16T03:01:01;1.70;;;0.93;;
51758;SDS011;66684;47.568;18.734;2023-05-16T03:03:27;3.50;;;0.90;;
51758;SDS011;66684;47.568;18.734;2023-05-16T03:05:54;2.47;;;1.30;;
51758;SDS011;66684;47.568;18.734;2023-05-16T03:08:20;3.05;;;1.98;;
51758;SDS011;66684;47.568;18.734;2023-05-16T03:10:46;3.15;;;1.90;;
51758;SDS011;66684;47.568;18.734;2023-05-16T03:13:12;4.07;;;1.80;;
51758;SDS011;66684;47.568;18.734;2023-05-16T03:15:38;3.58;;;1.75;;
51758;SDS011;66684;47.568;18.734;2023-05-16T03:18:04;2.78;;;1.40;;
51758;SDS011;66684;47.568;18.734;2023-05-16T03:20:30;2.62;;;1.77;;
51758;SDS011;66684;47.568;18.734;2023-05-16T03:22:56;3.50;;;1.80;;
51758;SDS011;66684;47.568;18.734;2023-05-16T03:25:22;3.97;;;1.80;;
51758;SDS011;66684;47.568;18.734;2023-05-16T03:27:48;2.90;;;1.98;;
51758;SDS011;66684;47.568;18.734;2023-05-16T03:30:13;4.97;;;2.35;;
51758;SDS011;66684;47.568;18.734;2023-05-16T03:32:40;3.35;;;1.95;;
51758;SDS011;66684;47.568;18.734;2023-05-16T03:35:06;4.47;;;2.22;;
51758;SDS011;66684;47.568;18.734;2023-05-16T03:37:32;2.65;;;2.10;;
51758;SDS011;66684;47.568;18.734;2023-05-16T03:39:59;2.83;;;2.15;;
51758;SDS011;66684;47.568;18.734;2023-05-16T03:42:25;7.00;;;2.60;;
51758;SDS011;66684;47.568;18.734;2023-05-16T03:44:51;2.80;;;2.00;;
51758;SDS011;66684;47.568;18.734;2023-05-16T03:47:17;2.62;;;1.73;;
51758;SDS011;66684;47.568;18.734;2023-05-16T03:49:43;6.07;;;2.33;;
51758;SDS011;66684;47.568;18.734;2023-05-16T03:52:09;4.55;;;1.75;;
51758;SDS011;66684;47.568;18.734;2023-05-16T03:54:35;2.85;;;1.70;;
51758;SDS011;66684;47.568;18.734;2023-05-16T03:57:01;2.03;;;1.23;;
51758;SDS011;66684;47.568;18.734;2023-05-16T03:59:28;2.60;;;1.40;;
51758;SDS011;66684;47.568;18.734;2023-05-16T04:01:53;3.75;;;1.48;;
51758;SDS011;66684;47.568;18.734;2023-05-16T04:04:20;4.07;;;1.80;;
51758;SDS011;66684;47.568;18.734;2023-05-16T04:06:45;4.12;;;1.33;;
51758;SDS011;66684;47.568;18.734;2023-05-16T04:09:11;11.65;;;1.48;;
51758;SDS011;66684;47.568;18.734;2023-05-16T04:11:38;5.03;;;1.20;;
51758;SDS011;66684;47.568;18.734;2023-05-16T04:14:04;3.05;;;1.23;;
51758;SDS011;66684;47.568;18.734;2023-05-16T04:16:29;1.23;;;0.80;;
51758;SDS011;66684;47.568;18.734;2023-05-16T04:18:55;3.20;;;1.48;;
51758;SDS011;66684;47.568;18.734;2023-05-16T04:21:21;1.73;;;0.70;;
51758;SDS011;66684;47.568;18.734;2023-05-16T04:23:47;1.75;;;1.00;;
51758;SDS011;66684;47.568;18.734;2023-05-16T04:26:13;1.75;;;0.73;;
51758;SDS011;66684;47.568;18.734;2023-05-16T04:28:39;3.50;;;0.82;;
51758;SDS011;66684;47.568;18.734;2023-05-16T04:31:05;1.17;;;0.40;;
51758;SDS011;66684;47.568;18.734;2023-05-16T04:33:32;3.67;;;0.60;;
51758;SDS011;66684;47.568;18.734;2023-05-16T04:35:58;2.47;;;0.50;;
51758;SDS011;66684;47.568;18.734;2023-05-16T04:38:24;1.58;;;0.50;;
51758;SDS011;66684;47.568;18.734;2023-05-16T04:40:51;1.30;;;0.40;;
51758;SDS011;66684;47.568;18.734;2023-05-16T04:43:17;3.35;;;0.43;;
51758;SDS011;66684;47.568;18.734;2023-05-16T04:45:44;5.53;;;0.50;;
51758;SDS011;66684;47.568;18.734;2023-05-16T04:48:11;2.47;;;0.43;;
51758;SDS011;66684;47.568;18.734;2023-05-16T04:50:38;16.20;;;0.88;;
51758;SDS011;66684;47.568;18.734;2023-05-16T04:53:03;2.53;;;0.50;;
51758;SDS011;66684;47.568;18.734;2023-05-16T04:55:29;2.45;;;0.40;;
51758;SDS011;66684;47.568;18.734;2023-05-16T04:57:55;1.05;;;0.40;;
51758;SDS011;66684;47.568;18.734;2023-05-16T05:00:21;1.60;;;0.52;;
51758;SDS011;66684;47.568;18.734;2023-05-16T05:02:47;1.40;;;0.32;;
51758;SDS011;66684;47.568;18.734;2023-05-16T05:05:13;3.62;;;0.60;;
51758;SDS011;66684;47.568;18.734;2023-05-16T05:07:39;0.70;;;0.30;;
51758;SDS011;66684;47.568;18.734;2023-05-16T05:10:05;1.80;;;0.30;;
51758;SDS011;66684;47.568;18.734;2023-05-16T05:12:32;4.75;;;0.40;;
51758;SDS011;66684;47.568;18.734;2023-05-16T05:14:58;2.78;;;0.40;;
51758;SDS011;66684;47.568;18.734;2023-05-16T05:17:24;1.00;;;0.30;;
51758;SDS011;66684;47.568;18.734;2023-05-16T05:19:50;0.73;;;0.30;;
51758;SDS011;66684;47.568;18.734;2023-05-16T05:22:16;1.80;;;0.30;;
51758;SDS011;66684;47.568;18.734;2023-05-16T05:24:42;2.30;;;0.30;;
51758;SDS011;66684;47.568;18.734;2023-05-16T05:27:07;2.65;;;0.50;;
51758;SDS011;66684;47.568;18.734;2023-05-16T05:29:34;4.20;;;2.17;;
51758;SDS011;66684;47.568;18.734;2023-05-16T05:32:00;5.93;;;2.20;;
51758;SDS011;66684;47.568;18.734;2023-05-16T05:34:26;2.67;;;0.60;;
51758;SDS011;66684;47.568;18.734;2023-05-16T05:36:51;3.20;;;1.23;;
51758;SDS011;66684;47.568;18.734;2023-05-16T05:39:17;2.67;;;1.40;;
51758;SDS011;66684;47.568;18.734;2023-05-16T05:41:43;3.35;;;1.27;;
51758;SDS011;66684;47.568;18.734;2023-05-16T05:44:09;4.68;;;2.20;;
51758;SDS011;66684;47.568;18.734;2023-05-16T05:46:35;1.35;;;1.15;;
51758;SDS011;66684;47.568;18.734;2023-05-16T05:49:01;4.25;;;1.70;;
51758;SDS011;66684;47.568;18.734;2023-05-16T05:51:27;4.82;;;1.90;;
51758;SDS011;66684;47.568;18.734;2023-05-16T05:53:53;2.65;;;1.62;;
51758;SDS011;66684;47.568;18.734;2023-05-16T05:56:20;2.37;;;1.10;;
51758;SDS011;66684;47.568;18.734;2023-05-16T05:58:46;1.55;;;0.68;;
51758;SDS011;66684;47.568;18.734;2023-05-16T06:01:12;1.27;;;0.85;;
51758;SDS011;66684;47.568;18.734;2023-05-16T06:03:38;3.75;;;0.75;;
51758;SDS011;66684;47.568;18.734;2023-05-16T06:06:04;6.47;;;0.50;;
51758;SDS011;66684;47.568;18.734;2023-05-16T06:08:30;1.33;;;0.50;;
51758;SDS011;66684;47.568;18.734;2023-05-16T06:10:56;2.45;;;0.60;;
51758;SDS011;66684;47.568;18.734;2023-05-16T06:13:21;2.25;;;0.52;;
51758;SDS011;66684;47.568;18.734;2023-05-16T06:15:50;1.35;;;0.60;;
51758;SDS011;66684;47.568;18.734;2023-05-16T06:18:17;4.15;;;0.73;;
51758;SDS011;66684;47.568;18.734;2023-05-16T06:20:42;1.33;;;0.40;;
51758;SDS011;66684;47.568;18.734;2023-05-16T06:23:08;3.35;;;0.82;;
51758;SDS011;66684;47.568;18.734;2023-05-16T06:25:35;4.93;;;0.88;;
51758;SDS011;66684;47.568;18.734;2023-05-16T06:28:00;1.95;;;0.73;;
51758;SDS011;66684;47.568;18.734;2023-05-16T06:30:26;1.77;;;0.80;;
51758;SDS011;66684;47.568;18.734;2023-05-16T06:32:52;4.10;;;0.60;;
51758;SDS011;66684;47.568;18.734;2023-05-16T06:35:18;3.80;;;0.70;;
51758;SDS011;66684;47.568;18.734;2023-05-16T06:37:44;2.33;;;1.10;;
51758;SDS011;66684;47.568;18.734;2023-05-16T06:40:10;2.83;;;1.20;;
51758;SDS011;66684;47.568;18.734;2023-05-16T06:42:37;1.83;;;1.30;;
51758;SDS011;66684;47.568;18.734;2023-05-16T06:45:03;2.80;;;1.60;;
51758;SDS011;66684;47.568;18.734;2023-05-16T06:47:29;2.58;;;1.70;;
51758;SDS011;66684;47.568;18.734;2023-05-16T06:49:55;4.53;;;1.10;;
51758;SDS011;66684;47.568;18.734;2023-05-16T06:52:21;2.00;;;1.30;;
51758;SDS011;66684;47.568;18.734;2023-05-16T06:54:47;2.55;;;0.85;;
51758;SDS011;66684;47.568;18.734;2023-05-16T06:57:13;2.50;;;0.90;;
51758;SDS011;66684;47.568;18.734;2023-05-16T06:59:39;3.78;;;0.60;;
51758;SDS011;66684;47.568;18.734;2023-05-16T07:02:05;2.62;;;0.60;;
51758;SDS011;66684;47.568;18.734;2023-05-16T07:04:31;2.78;;;0.60;;
51758;SDS011;66684;47.568;18.734;2023-05-16T07:06:57;2.78;;;0.60;;
51758;SDS011;66684;47.568;18.734;2023-05-16T07:09:23;2.50;;;0.60;;
51758;SDS011;66684;47.568;18.734;2023-05-16T07:11:49;2.10;;;0.60;;
51758;SDS011;66684;47.568;18.734;2023-05-16T07:14:15;2.08;;;0.40;;
51758;SDS011;66684;47.568;18.734;2023-05-16T07:16:41;3.85;;;0.60;;
51758;SDS011;66684;47.568;18.734;2023-05-16T07:19:06;1.85;;;0.90;;
51758;SDS011;66684;47.568;18.734;2023-05-16T07:21:32;2.67;;;0.90;;
51758;SDS011;66684;47.568;18.734;2023-05-16T07:23:58;3.55;;;0.90;;
51758;SDS011;66684;47.568;18.734;2023-05-16T07:26:24;1.42;;;0.88;;
51758;SDS011;66684;47.568;18.734;2023-05-16T07:28:51;8.52;;;4.72;;
51758;SDS011;66684;47.568;18.734;2023-05-16T07:31:17;1.92;;;1.05;;
51758;SDS011;66684;47.568;18.734;2023-05-16T07:33:43;2.33;;;1.10;;
51758;SDS011;66684;47.568;18.734;2023-05-16T07:36:11;3.83;;;0.90;;
51758;SDS011;66684;47.568;18.734;2023-05-16T07:38:38;4.00;;;0.98;;
51758;SDS011;66684;47.568;18.734;2023-05-16T07:41:04;5.43;;;1.10;;
51758;SDS011;66684;47.568;18.734;2023-05-16T07:43:30;1.52;;;1.00;;
51758;SDS011;66684;47.568;18.734;2023-05-16T07:46:00;2.15;;;1.35;;
51758;SDS011;66684;47.568;18.734;2023-05-16T07:48:26;4.12;;;1.75;;
51758;SDS011;66684;47.568;18.734;2023-05-16T07:50:52;4.82;;;2.05;;
51758;SDS011;66684;47.568;18.734;2023-05-16T07:53:19;3.90;;;2.70;;
51758;SDS011;66684;47.568;18.734;2023-05-16T07:55:46;4.62;;;2.40;;
51758;SDS011;66684;47.568;18.734;2023-05-16T07:58:12;5.22;;;2.55;;
51758;SDS011;66684;47.568;18.734;2023-05-16T08:00:38;4.97;;;2.67;;
51758;SDS011;66684;47.568;18.734;2023-05-16T08:03:04;7.10;;;3.83;;
51758;SDS011;66684;47.568;18.734;2023-05-16T08:05:31;6.05;;;4.40;;
51758;SDS011;66684;47.568;18.734;2023-05-16T08:07:57;7.57;;;4.62;;
51758;SDS011;66684;47.568;18.734;2023-05-16T08:10:23;5.97;;;3.80;;
51758;SDS011;66684;47.568;18.734;2023-05-16T08:12:49;7.75;;;4.28;;
51758;SDS011;66684;47.568;18.734;2023-05-16T08:15:15;6.82;;;4.10;;
51758;SDS011;66684;47.568;18.734;2023-05-16T08:17:41;6.32;;;4.43;;
51758;SDS011;66684;47.568;18.734;2023-05-16T08:20:07;5.68;;;4.40;;
51758;SDS011;66684;47.568;18.734;2023-05-16T08:22:33;9.95;;;4.70;;
51758;SDS011;66684;47.568;18.734;2023-05-16T08:24:59;8.30;;;5.18;;
51758;SDS011;66684;47.568;18.734;2023-05-16T08:27:25;7.05;;;4.82;;
51758;SDS011;66684;47.568;18.734;2023-05-16T08:29:52;8.40;;;5.80;;
51758;SDS011;66684;47.568;18.734;2023-05-16T08:32:18;7.45;;;5.50;;
51758;SDS011;66684;47.568;18.734;2023-05-16T08:34:44;9.10;;;6.20;;
51758;SDS011;66684;47.568;18.734;2023-05-16T08:37:10;11.25;;;6.25;;
51758;SDS011;66684;47.568;18.734;2023-05-16T08:39:39;10.48;;;6.55;;
51758;SDS011;66684;47.568;18.734;2023-05-16T08:42:05;8.07;;;5.97;;
51758;SDS011;66684;47.568;18.734;2023-05-16T08:44:31;8.43;;;5.95;;
51758;SDS011;66684;47.568;18.734;2023-05-16T08:47:00;9.68;;;6.28;;
51758;SDS011;66684;47.568;18.734;2023-05-16T08:49:38;8.18;;;6.37;;
51758;SDS011;66684;47.568;18.734;2023-05-16T08:52:06;6.68;;;5.10;;
51758;SDS011;66684;47.568;18.734;2023-05-16T08:54:34;8.02;;;5.25;;
51758;SDS011;66684;47.568;18.734;2023-05-16T08:57:01;8.32;;;6.30;;
51758;SDS011;66684;47.568;18.734;2023-05-16T08:59:28;8.65;;;6.15;;
51758;SDS011;66684;47.568;18.734;2023-05-16T09:01:54;8.23;;;6.12;;
51758;SDS011;66684;47.568;18.734;2023-05-16T09:04:21;6.87;;;5.40;;
51758;SDS011;66684;47.568;18.734;2023-05-16T09:06:49;8.32;;;5.87;;
51758;SDS011;66684;47.568;18.734;2023-05-16T09:09:16;8.50;;;6.57;;
51758;SDS011;66684;47.568;18.734;2023-05-16T09:11:42;9.23;;;6.80;;
51758;SDS011;66684;47.568;18.734;2023-05-16T09:14:08;6.35;;;5.22;;
51758;SDS011;66684;47.568;18.734;2023-05-16T09:16:34;7.10;;;5.12;;
51758;SDS011;66684;47.568;18.734;2023-05-16T09:19:00;8.68;;;6.53;;
51758;SDS011;66684;47.568;18.734;2023-05-16T09:21:27;10.20;;;9.07;;
51758;SDS011;66684;47.568;18.734;2023-05-16T09:23:54;8.55;;;6.32;;
51758;SDS011;66684;47.568;18.734;2023-05-16T09:26:20;7.93;;;5.60;;
51758;SDS011;66684;47.568;18.734;2023-05-16T09:28:47;14.25;;;10.05;;
51758;SDS011;66684;47.568;18.734;2023-05-16T09:31:19;5.90;;;5.30;;
51758;SDS011;66684;47.568;18.734;2023-05-16T09:33:47;6.87;;;5.75;;
51758;SDS011;66684;47.568;18.734;2023-05-16T09:36:16;7.45;;;5.82;;
51758;SDS011;66684;47.568;18.734;2023-05-16T09:38:42;7.22;;;6.00;;
51758;SDS011;66684;47.568;18.734;2023-05-16T09:41:08;6.93;;;6.20;;
51758;SDS011;66684;47.568;18.734;2023-05-16T09:43:37;7.65;;;6.75;;
51758;SDS011;66684;47.568;18.734;2023-05-16T09:46:10;7.93;;;7.07;;
51758;SDS011;66684;47.568;18.734;2023-05-16T09:48:45;9.75;;;7.40;;
51758;SDS011;66684;47.568;18.734;2023-05-16T09:51:12;10.18;;;9.07;;
51758;SDS011;66684;47.568;18.734;2023-05-16T09:53:39;9.40;;;8.30;;
51758;SDS011;66684;47.568;18.734;2023-05-16T09:56:12;9.52;;;8.60;;
51758;SDS011;66684;47.568;18.734;2023-05-16T09:58:40;10.48;;;9.40;;
51758;SDS011;66684;47.568;18.734;2023-05-16T10:01:08;10.50;;;9.38;;
51758;SDS011;66684;47.568;18.734;2023-05-16T10:03:36;11.80;;;10.45;;
51758;SDS011;66684;47.568;18.734;2023-05-16T10:06:04;11.25;;;10.10;;
51758;SDS011;66684;47.568;18.734;2023-05-16T10:08:32;11.80;;;9.57;;
51758;SDS011;66684;47.568;18.734;2023-05-16T10:11:01;11.45;;;10.13;;
51758;SDS011;66684;47.568;18.734;2023-05-16T10:13:31;12.73;;;11.43;;
51758;SDS011;66684;47.568;18.734;2023-05-16T10:15:59;12.20;;;10.38;;
51758;SDS011;66684;47.568;18.734;2023-05-16T10:18:30;11.87;;;10.67;;
51758;SDS011;66684;47.568;18.734;2023-05-16T10:20:57;11.45;;;10.35;;
51758;SDS011;66684;47.568;18.734;2023-05-16T10:23:30;11.65;;;10.45;;
51758;SDS011;66684;47.568;18.734;2023-05-16T10:25:59;11.88;;;10.68;;
51758;SDS011;66684;47.568;18.734;2023-05-16T10:28:28;12.00;;;10.65;;
51758;SDS011;66684;47.568;18.734;2023-05-16T10:30:54;12.88;;;10.15;;
51758;SDS011;66684;47.568;18.734;2023-05-16T10:33:20;13.57;;;11.35;;
51758;SDS011;66684;47.568;18.734;2023-05-16T10:35:46;11.43;;;9.55;;
51758;SDS011;66684;47.568;18.734;2023-05-16T10:38:14;10.35;;;9.35;;
51758;SDS011;66684;47.568;18.734;2023-05-16T10:40:42;10.00;;;9.00;;
51758;SDS011;66684;47.568;18.734;2023-05-16T10:43:09;8.73;;;7.82;;
51758;SDS011;66684;47.568;18.734;2023-05-16T10:45:39;10.05;;;7.28;;
51758;SDS011;66684;47.568;18.734;2023-05-16T10:48:09;7.50;;;6.70;;
51758;SDS011;66684;47.568;18.734;2023-05-16T10:50:38;6.72;;;6.00;;
51758;SDS011;66684;47.568;18.734;2023-05-16T10:53:14;6.95;;;6.12;;
51758;SDS011;66684;47.568;18.734;2023-05-16T10:55:47;7.00;;;6.30;;
51758;SDS011;66684;47.568;18.734;2023-05-16T11:06:25;6.57;;;5.97;;
51758;SDS011;66684;47.568;18.734;2023-05-16T11:11:45;10.15;;;6.53;;
51758;SDS011;66684;47.568;18.734;2023-05-16T11:22:07;7.15;;;6.45;;
51758;SDS011;66684;47.568;18.734;2023-05-16T11:24:34;7.97;;;7.18;;
51758;SDS011;66684;47.568;18.734;2023-05-16T11:27:02;7.40;;;6.70;;
51758;SDS011;66684;47.568;18.734;2023-05-16T11:29:32;8.55;;;6.72;;
51758;SDS011;66684;47.568;18.734;2023-05-16T11:32:00;8.23;;;6.70;;
51758;SDS011;66684;47.568;18.734;2023-05-16T11:34:31;7.25;;;6.55;;
51758;SDS011;66684;47.568;18.734;2023-05-16T11:37:00;6.93;;;6.32;;
51758;SDS011;66684;47.568;18.734;2023-05-16T11:39:28;8.32;;;6.55;;
51758;SDS011;66684;47.568;18.734;2023-05-16T11:41:56;7.00;;;6.30;;
51758;SDS011;66684;47.568;18.734;2023-05-16T11:44:22;7.12;;;6.53;;
51758;SDS011;66684;47.568;18.734;2023-05-16T11:46:48;7.32;;;6.10;;
51758;SDS011;66684;47.568;18.734;2023-05-16T11:49:14;7.22;;;6.53;;
51758;SDS011;66684;47.568;18.734;2023-05-16T11:51:40;7.28;;;6.20;;
51758;SDS011;66684;47.568;18.734;2023-05-16T11:54:08;7.25;;;6.18;;
51758;SDS011;66684;47.568;18.734;2023-05-16T11:56:35;9.27;;;6.20;;
51758;SDS011;66684;47.568;18.734;2023-05-16T11:59:01;6.47;;;5.85;;
51758;SDS011;66684;47.568;18.734;2023-05-16T12:01:34;7.95;;;6.65;;
51758;SDS011;66684;47.568;18.734;2023-05-16T12:04:06;8.05;;;6.37;;
51758;SDS011;66684;47.568;18.734;2023-05-16T12:06:37;7.60;;;6.60;;
51758;SDS011;66684;47.568;18.734;2023-05-16T12:09:03;8.60;;;6.90;;
51758;SDS011;66684;47.568;18.734;2023-05-16T12:11:36;10.80;;;7.70;;
51758;SDS011;66684;47.568;18.734;2023-05-16T12:14:09;8.15;;;7.30;;
51758;SDS011;66684;47.568;18.734;2023-05-16T12:16:37;8.27;;;7.32;;
51758;SDS011;66684;47.568;18.734;2023-05-16T12:19:06;8.02;;;7.20;;
51758;SDS011;66684;47.568;18.734;2023-05-16T12:21:33;8.10;;;7.00;;
51758;SDS011;66684;47.568;18.734;2023-05-16T12:24:00;9.55;;;7.82;;
51758;SDS011;66684;47.568;18.734;2023-05-16T12:26:30;9.50;;;7.85;;
51758;SDS011;66684;47.568;18.734;2023-05-16T12:29:01;9.23;;;7.30;;
51758;SDS011;66684;47.568;18.734;2023-05-16T12:31:30;9.02;;;7.85;;
51758;SDS011;66684;47.568;18.734;2023-05-16T12:34:01;8.23;;;7.10;;
51758;SDS011;66684;47.568;18.734;2023-05-16T12:36:30;8.52;;;6.65;;
51758;SDS011;66684;47.568;18.734;2023-05-16T12:39:01;11.23;;;8.23;;
51758;SDS011;66684;47.568;18.734;2023-05-16T12:41:30;8.38;;;6.87;;
51758;SDS011;66684;47.568;18.734;2023-05-16T12:46:54;7.50;;;6.32;;
51758;SDS011;66684;47.568;18.734;2023-05-16T12:49:22;8.90;;;7.03;;
51758;SDS011;66684;47.568;18.734;2023-05-16T12:51:52;10.13;;;6.82;;
51758;SDS011;66684;47.568;18.734;2023-05-16T12:54:19;10.18;;;7.05;;
51758;SDS011;66684;47.568;18.734;2023-05-16T12:56:47;11.50;;;9.20;;
51758;SDS011;66684;47.568;18.734;2023-05-16T12:59:13;12.48;;;7.45;;
51758;SDS011;66684;47.568;18.734;2023-05-16T13:01:39;11.00;;;7.05;;
51758;SDS011;66684;47.568;18.734;2023-05-16T13:04:06;9.95;;;6.80;;
51758;SDS011;66684;47.568;18.734;2023-05-16T13:06:32;8.13;;;6.50;;
51758;SDS011;66684;47.568;18.734;2023-05-16T13:08:58;9.15;;;6.72;;
51758;SDS011;66684;47.568;18.734;2023-05-16T13:11:25;10.73;;;8.60;;
51758;SDS011;66684;47.568;18.734;2023-05-16T13:13:51;9.70;;;6.80;;
51758;SDS011;66684;47.568;18.734;2023-05-16T13:16:17;14.20;;;7.28;;
51758;SDS011;66684;47.568;18.734;2023-05-16T13:18:43;10.25;;;8.30;;
51758;SDS011;66684;47.568;18.734;2023-05-16T13:21:09;7.87;;;6.82;;
51758;SDS011;66684;47.568;18.734;2023-05-16T13:23:35;12.75;;;7.45;;
51758;SDS011;66684;47.568;18.734;2023-05-16T13:26:01;7.55;;;6.43;;
51758;SDS011;66684;47.568;18.734;2023-05-16T13:28:27;11.25;;;8.95;;
51758;SDS011;66684;47.568;18.734;2023-05-16T13:30:52;9.88;;;7.65;;
51758;SDS011;66684;47.568;18.734;2023-05-16T13:33:18;10.90;;;9.80;;
51758;SDS011;66684;47.568;18.734;2023-05-16T13:35:44;8.40;;;7.43;;
51758;SDS011;66684;47.568;18.734;2023-05-16T13:38:10;8.43;;;7.43;;
51758;SDS011;66684;47.568;18.734;2023-05-16T13:40:36;9.55;;;7.75;;
51758;SDS011;66684;47.568;18.734;2023-05-16T13:43:02;9.23;;;8.25;;
51758;SDS011;66684;47.568;18.734;2023-05-16T13:45:28;10.68;;;8.07;;
51758;SDS011;66684;47.568;18.734;2023-05-16T13:47:54;9.88;;;8.88;;
51758;SDS011;66684;47.568;18.734;2023-05-16T13:50:20;10.25;;;9.20;;
51758;SDS011;66684;47.568;18.734;2023-05-16T13:52:45;10.95;;;9.13;;
51758;SDS011;66684;47.568;18.734;2023-05-16T13:55:12;13.45;;;10.38;;
51758;SDS011;66684;47.568;18.734;2023-05-16T13:57:38;13.02;;;10.25;;
51758;SDS011;66684;47.568;18.734;2023-05-16T14:00:04;13.57;;;10.30;;
51758;SDS011;66684;47.568;18.734;2023-05-16T14:02:40;13.95;;;10.25;;
51758;SDS011;66684;47.568;18.734;2023-05-16T14:05:07;11.43;;;10.25;;
51758;SDS011;66684;47.568;18.734;2023-05-16T14:07:34;15.15;;;10.20;;
51758;SDS011;66684;47.568;18.734;2023-05-16T14:10:00;13.85;;;9.50;;
51758;SDS011;66684;47.568;18.734;2023-05-16T14:12:26;14.60;;;10.10;;
51758;SDS011;66684;47.568;18.734;2023-05-16T14:14:52;12.52;;;9.38;;
51758;SDS011;66684;47.568;18.734;2023-05-16T14:17:19;12.93;;;9.02;;
51758;SDS011;66684;47.568;18.734;2023-05-16T14:19:45;12.80;;;8.45;;
51758;SDS011;66684;47.568;18.734;2023-05-16T14:22:11;9.88;;;8.77;;
51758;SDS011;66684;47.568;18.734;2023-05-16T14:24:37;10.88;;;8.80;;
51758;SDS011;66684;47.568;18.734;2023-05-16T14:27:03;12.65;;;8.02;;
51758;SDS011;66684;47.568;18.734;2023-05-16T14:29:29;9.07;;;7.12;;
51758;SDS011;66684;47.568;18.734;2023-05-16T14:31:55;11.12;;;7.93;;
51758;SDS011;66684;47.568;18.734;2023-05-16T14:34:21;8.73;;;7.65;;
51758;SDS011;66684;47.568;18.734;2023-05-16T14:36:47;13.32;;;8.88;;
51758;SDS011;66684;47.568;18.734;2023-05-16T14:39:13;14.48;;;9.18;;
51758;SDS011;66684;47.568;18.734;2023-05-16T14:41:40;15.27;;;9.13;;
51758;SDS011;66684;47.568;18.734;2023-05-16T14:44:06;12.05;;;7.60;;
51758;SDS011;66684;47.568;18.734;2023-05-16T14:46:32;9.73;;;6.90;;
51758;SDS011;66684;47.568;18.734;2023-05-16T14:48:58;12.00;;;8.95;;
51758;SDS011;66684;47.568;18.734;2023-05-16T14:51:24;18.33;;;11.40;;
51758;SDS011;66684;47.568;18.734;2023-05-16T14:53:50;20.20;;;8.95;;
51758;SDS011;66684;47.568;18.734;2023-05-16T14:56:16;13.80;;;8.00;;
51758;SDS011;66684;47.568;18.734;2023-05-16T14:58:42;9.40;;;6.28;;
51758;SDS011;66684;47.568;18.734;2023-05-16T15:01:08;12.15;;;6.35;;